Time;durP1;ratioP1;P1;durP2;ratioP2;P2;SDS_P1;SDS_P2;PMS_P1;PMS_P2;Temp;Humidity;BMP_temperature;BMP_pressure;BME280_temperature;BME280_humidity;BME280_pressure;Samples;Min_cycle;Max_cycle;Signal;HPM_P1;HPM_P2
2021/12/25 00:01:20;;;;;;;20.20;15.37;;;;;;;7.08;79.08;97998.00;5043488;28;20665;-62
2021/12/25 00:03:49;;;;;;;20.80;15.37;;;;;;;8.50;72.23;97956.00;5044104;28;20240;-62
2021/12/25 00:06:17;;;;;;;22.10;15.13;;;;;;;8.97;71.76;97940.91;5039695;28;20228;-62
2021/12/25 00:08:44;;;;;;;22.93;16.17;;;;;;;9.49;69.38;97931.22;5037067;28;20232;-62
2021/12/25 00:11:12;;;;;;;28.83;17.30;;;;;;;9.59;68.42;97912.13;5036289;28;20353;-62
2021/12/25 00:13:40;;;;;;;27.43;18.57;;;;;;;9.39;68.64;97927.34;5044328;28;20227;-62
2021/12/25 00:16:08;;;;;;;25.40;17.87;;;;;;;9.49;68.70;97917.06;5047993;28;20601;-62
2021/12/25 00:18:36;;;;;;;25.93;17.40;;;;;;;9.64;68.08;97920.28;5049130;28;20234;-62
2021/12/25 00:21:03;;;;;;;26.50;17.83;;;;;;;9.50;68.43;97924.84;5026701;28;20233;-62
2021/12/25 00:23:30;;;;;;;25.43;17.90;;;;;;;9.72;68.19;97919.25;5037318;28;21318;-62
2021/12/25 00:26:03;;;;;;;28.73;17.33;;;;;;;9.55;68.43;97925.03;5048549;28;20232;-62
2021/12/25 00:36:11;;;;;;;29.77;18.97;;;;;;;9.66;68.66;97920.06;5039799;28;20715;-60
2021/12/25 00:38:40;;;;;;;30.50;20.50;;;;;;;9.65;68.16;97911.28;5043799;28;20236;-60
2021/12/25 00:41:07;;;;;;;29.87;19.57;;;;;;;9.74;68.12;97914.53;5046298;28;20216;-61
2021/12/25 00:43:34;;;;;;;27.47;18.57;;;;;;;9.67;68.20;97909.22;5040875;28;20848;-60
2021/12/25 00:46:01;;;;;;;29.83;16.87;;;;;;;9.45;69.27;97922.00;5047766;28;20231;-61
2021/12/25 00:48:28;;;;;;;29.03;18.40;;;;;;;9.30;69.88;97926.75;5041713;28;20644;-61
2021/12/25 00:50:55;;;;;;;25.63;17.73;;;;;;;9.34;69.46;97915.50;5040570;28;20234;-60
2021/12/25 00:53:22;;;;;;;28.43;17.63;;;;;;;9.47;68.90;97906.63;5047301;28;20228;-63
2021/12/25 00:55:49;;;;;;;28.03;19.93;;;;;;;9.74;68.69;97899.34;5029279;28;20228;-60
2021/12/25 00:58:16;;;;;;;28.33;18.10;;;;;;;9.22;70.24;97924.31;5048757;28;20230;-60
2021/12/25 01:00:43;;;;;;;30.23;17.27;;;;;;;8.82;70.64;97925.19;5044159;28;20231;-60
2021/12/25 01:03:11;;;;;;;28.47;17.90;;;;;;;9.02;71.06;97930.50;5033015;28;20314;-60
2021/12/25 01:05:38;;;;;;;28.10;19.07;;;;;;;8.86;71.40;97939.69;5043668;28;20590;-61
2021/12/25 01:08:05;;;;;;;27.27;19.07;;;;;;;9.33;70.47;97910.38;5045956;28;20224;-61
2021/12/25 01:10:34;;;;;;;29.53;18.67;;;;;;;9.60;69.54;97903.13;5046019;28;20234;-60
2021/12/25 01:13:12;;;;;;;29.50;19.03;;;;;;;9.11;70.35;97920.44;5045607;28;20234;-61
2021/12/25 01:16:16;;;;;;;29.07;18.60;;;;;;;9.20;71.05;97913.06;5033636;28;20236;-61
2021/12/25 01:19:31;;;;;;;29.87;18.87;;;;;;;9.31;70.66;97910.59;5043141;28;20228;-62
2021/12/25 01:39:56;;;;;;;29.83;18.77;;;;;;;9.60;69.26;97900.44;4966469;28;20771;-61
2021/12/25 01:47:47;;;;;;;30.93;19.10;;;;;;;9.33;69.93;97908.53;5059255;22;20244;-63
2021/12/25 01:50:17;;;;;;;30.53;20.10;;;;;;;10.02;67.70;97889.44;5029561;28;20649;-62
2021/12/25 01:52:45;;;;;;;32.90;21.87;;;;;;;10.14;67.30;97881.56;5025551;28;20247;-61
2021/12/25 01:55:17;;;;;;;29.67;20.43;;;;;;;10.19;67.32;97889.75;5018781;28;20228;-61
2021/12/25 01:57:44;;;;;;;30.37;19.73;;;;;;;10.21;66.61;97877.00;5014475;28;20237;-63
2021/12/25 02:00:17;;;;;;;31.90;20.63;;;;;;;9.61;68.80;97899.44;5005587;28;20221;-62
2021/12/25 02:02:44;;;;;;;33.20;21.00;;;;;;;9.88;67.75;97878.03;5004534;28;20240;-62
2021/12/25 02:05:12;;;;;;;35.03;21.90;;;;;;;10.10;67.34;97874.00;5006309;28;20610;-62
2021/12/25 02:07:40;;;;;;;35.67;22.07;;;;;;;10.61;65.87;97866.06;5002574;28;20238;-62
2021/12/25 02:10:08;;;;;;;31.40;20.57;;;;;;;9.84;67.70;97880.28;4997245;28;20652;-62
2021/12/25 02:12:35;;;;;;;31.60;20.53;;;;;;;10.18;67.37;97878.25;5007132;28;20229;-62
2021/12/25 02:15:09;;;;;;;32.60;21.20;;;;;;;9.76;68.89;97891.16;5005229;28;20239;-62
2021/12/25 02:17:54;;;;;;;33.80;21.30;;;;;;;9.97;67.91;97882.06;5006125;28;20235;-62
2021/12/25 02:20:31;;;;;;;30.57;19.73;;;;;;;9.99;67.97;97893.34;5017217;28;20225;-62
2021/12/25 02:23:04;;;;;;;29.73;19.70;;;;;;;9.61;68.35;97903.91;5017044;28;20228;-62
2021/12/25 02:25:33;;;;;;;31.43;20.63;;;;;;;9.12;69.73;97914.94;5024347;28;20250;-61
2021/12/25 02:28:01;;;;;;;35.50;22.37;;;;;;;9.90;67.46;97891.97;5026852;28;20229;-62
2021/12/25 02:30:28;;;;;;;33.23;20.37;;;;;;;10.31;67.16;97872.03;5025376;28;20221;-62
2021/12/25 02:32:58;;;;;;;37.57;20.43;;;;;;;7.87;73.36;97919.88;5025379;28;20228;-62
2021/12/25 02:35:26;;;;;;;31.60;21.13;;;;;;;9.94;68.22;97865.72;5014501;28;20243;-62
2021/12/25 02:37:54;;;;;;;34.63;21.57;;;;;;;7.91;74.15;97928.28;5019916;28;20244;-62
2021/12/25 02:40:21;;;;;;;33.20;21.13;;;;;;;9.95;68.33;97862.00;5027460;28;20226;-62
2021/12/25 02:42:48;;;;;;;30.67;20.93;;;;;;;9.65;68.60;97883.84;5024856;28;20239;-62
2021/12/25 02:45:18;;;;;;;33.23;20.50;;;;;;;9.15;69.72;97898.53;5017099;28;20220;-62
2021/12/25 02:47:49;;;;;;;35.00;21.90;;;;;;;9.22;69.73;97900.38;5018949;28;20236;-61
2021/12/25 02:50:28;;;;;;;34.37;21.30;;;;;;;9.80;68.19;97862.28;5018842;28;20573;-61
2021/12/25 02:52:57;;;;;;;34.53;21.40;;;;;;;9.73;68.21;97857.00;5023603;28;20232;-62
2021/12/25 02:55:25;;;;;;;34.37;21.37;;;;;;;7.01;76.55;97905.16;5027184;28;20596;-62
2021/12/25 02:57:53;;;;;;;34.57;20.37;;;;;;;6.19;81.77;97922.41;5024687;28;20755;-62
2021/12/25 03:00:22;;;;;;;29.37;19.33;;;;;;;5.92;84.23;97929.22;5012962;28;20643;-62
2021/12/25 03:02:50;;;;;;;35.37;21.07;;;;;;;7.60;78.11;97877.31;5015404;28;20235;-62
2021/12/25 03:05:17;;;;;;;32.47;18.67;;;;;;;6.14;83.61;97922.16;5024062;28;21607;-63
2021/12/25 03:07:45;;;;;;;33.13;19.97;;;;;;;8.02;75.96;97851.50;5025140;28;20239;-62
2021/12/25 03:10:15;;;;;;;32.60;20.07;;;;;;;6.29;81.23;97901.72;5013936;28;20231;-62
2021/12/25 03:12:53;;;;;;;33.90;19.93;;;;;;;6.92;79.96;97888.59;5025921;28;20233;-62
2021/12/25 03:15:30;;;;;;;27.00;17.87;;;;;;;7.18;80.17;97860.59;5009852;28;20646;-62
2021/12/25 03:17:57;;;;;;;31.50;19.03;;;;;;;6.61;80.49;97881.03;5014818;28;20762;-62
2021/12/25 03:20:24;;;;;;;32.13;19.53;;;;;;;6.17;83.52;97888.16;5025326;28;20230;-62
2021/12/25 03:22:51;;;;;;;32.20;18.20;;;;;;;7.25;79.43;97855.31;5025649;28;20705;-61
2021/12/25 03:25:19;;;;;;;31.00;18.47;;;;;;;8.12;77.60;97811.28;5023977;28;20668;-62
2021/12/25 03:27:46;;;;;;;27.40;18.00;;;;;;;5.92;84.39;97884.22;5019005;28;20234;-61
2021/12/25 03:30:16;;;;;;;27.83;18.57;;;;;;;6.54;83.91;97875.69;5017740;28;20235;-62
2021/12/25 03:32:45;;;;;;;29.77;17.13;;;;;;;6.14;83.94;97883.25;5026179;28;20263;-62
2021/12/25 03:35:13;;;;;;;27.60;16.60;;;;;;;6.49;82.71;97869.31;5023793;28;20236;-62
2021/12/25 03:37:40;;;;;;;29.03;18.87;;;;;;;7.90;78.47;97815.16;5026275;28;20244;-61
2021/12/25 03:40:07;;;;;;;29.00;16.53;;;;;;;6.71;83.84;97860.31;5022628;28;20228;-62
2021/12/25 03:42:35;;;;;;;34.47;18.20;;;;;;;7.73;78.61;97820.84;5014482;28;20237;-62
2021/12/25 03:45:03;;;;;;;33.57;18.83;;;;;;;6.76;81.16;97872.97;5025639;28;20271;-62
2021/12/25 03:47:37;;;;;;;32.97;19.27;;;;;;;7.31;80.29;97830.66;5027754;28;20740;-62
2021/12/25 03:58:19;;;;;;;32.50;18.47;;;;;;;7.79;79.00;97817.38;5023920;28;20220;-62
2021/12/25 04:00:48;;;;;;;37.47;20.50;;;;;;;7.32;77.36;97842.94;5028292;28;20220;-62
2021/12/25 04:03:29;;;;;;;38.60;21.00;;;;;;;9.15;72.27;97781.47;5024673;28;20231;-62
2021/12/25 04:05:56;;;;;;;34.53;19.27;;;;;;;9.11;71.90;97792.78;5030231;28;20594;-62
2021/12/25 04:08:30;;;;;;;38.47;21.43;;;;;;;9.39;70.56;97780.97;5012244;28;20231;-62
2021/12/25 04:11:03;;;;;;;40.70;22.27;;;;;;;8.96;71.31;97808.97;5025404;28;20231;-62
2021/12/25 04:13:30;;;;;;;40.93;22.33;;;;;;;9.07;71.08;97807.50;5027125;28;20225;-62
2021/12/25 04:15:57;;;;;;;42.40;22.87;;;;;;;9.26;70.98;97801.31;5028762;28;20248;-62
2021/12/25 04:18:25;;;;;;;35.37;20.43;;;;;;;9.48;70.21;97785.03;5028060;28;20624;-63
2021/12/25 04:20:52;;;;;;;39.67;21.67;;;;;;;9.51;70.17;97793.41;5019895;28;20225;-62
2021/12/25 04:23:24;;;;;;;40.47;21.87;;;;;;;9.30;70.34;97801.69;5021271;28;20593;-62
2021/12/25 04:25:53;;;;;;;41.93;22.20;;;;;;;9.72;69.21;97797.59;5027955;28;20232;-62
2021/12/25 04:28:35;;;;;;;37.77;20.37;;;;;;;9.03;71.05;97814.28;5028568;28;20221;-63
2021/12/25 05:04:23;;;;;;;38.40;21.53;;;;;;;8.98;71.52;97814.91;4999605;28;20343;-63
2021/12/25 05:06:50;;;;;;;39.03;21.30;;;;;;;9.34;69.60;97793.09;5004827;28;20569;-63
2021/12/25 05:09:17;;;;;;;43.27;21.97;;;;;;;9.00;70.07;97796.88;5023667;28;20470;-63
2021/12/25 05:11:44;;;;;;;39.97;22.03;;;;;;;9.08;70.61;97803.84;5007532;28;20734;-63
2021/12/25 05:14:11;;;;;;;36.80;22.43;;;;;;;8.91;71.27;97814.13;5000545;28;20233;-63
2021/12/25 05:16:39;;;;;;;37.97;22.13;;;;;;;8.89;71.85;97818.81;5001042;28;20221;-63
2021/12/25 05:19:06;;;;;;;40.73;22.33;;;;;;;9.16;70.83;97808.94;5007031;28;20225;-63
2021/12/25 05:21:33;;;;;;;41.23;23.10;;;;;;;8.91;70.86;97812.25;5007183;28;20650;-63
2021/12/25 05:24:01;;;;;;;40.53;22.70;;;;;;;8.84;71.14;97813.31;4993347;28;20229;-63
2021/12/25 05:26:28;;;;;;;43.37;24.33;;;;;;;8.99;71.19;97809.38;5004576;28;20243;-63
2021/12/25 05:28:59;;;;;;;38.70;22.13;;;;;;;8.71;71.81;97830.06;4993057;28;20225;-63
2021/12/25 05:31:31;;;;;;;41.50;23.73;;;;;;;8.63;72.19;97823.13;4988445;28;20236;-63
2021/12/25 05:33:58;;;;;;;40.27;23.83;;;;;;;8.91;71.18;97806.94;5007812;28;20237;-63
2021/12/25 05:36:28;;;;;;;39.03;22.53;;;;;;;8.87;71.44;97811.06;5002673;28;20221;-63
2021/12/25 05:38:58;;;;;;;35.47;21.50;;;;;;;9.16;70.11;97795.63;5023877;28;20312;-63
2021/12/25 05:41:27;;;;;;;39.50;21.33;;;;;;;9.09;70.99;97810.75;5017928;28;20232;-63
2021/12/25 05:43:55;;;;;;;43.07;21.77;;;;;;;8.62;71.98;97822.31;5022169;28;20255;-63
2021/12/25 05:46:23;;;;;;;38.13;21.57;;;;;;;8.61;72.80;97831.28;5027935;28;20220;-63
2021/12/25 05:48:50;;;;;;;43.57;21.40;;;;;;;8.62;72.55;97832.94;5025788;28;20606;-63
2021/12/25 05:51:18;;;;;;;41.17;23.83;;;;;;;8.96;71.92;97819.63;5027115;28;20479;-63
2021/12/25 05:53:46;;;;;;;46.97;24.53;;;;;;;8.50;72.89;97837.25;5018275;28;20240;-63
2021/12/25 05:56:14;;;;;;;41.20;23.53;;;;;;;9.02;71.04;97807.31;5017696;28;20523;-63
2021/12/25 05:58:41;;;;;;;40.13;22.63;;;;;;;8.73;71.73;97825.34;5024838;28;20232;-63
2021/12/25 06:01:08;;;;;;;42.10;22.93;;;;;;;8.88;71.22;97814.53;5008245;28;20217;-63
2021/12/25 06:03:35;;;;;;;46.60;23.13;;;;;;;9.18;70.32;97805.00;5015312;28;20232;-63
2021/12/25 06:06:02;;;;;;;38.53;22.63;;;;;;;8.97;71.09;97813.25;5024789;28;20240;-63
2021/12/25 06:08:29;;;;;;;40.30;23.00;;;;;;;8.70;71.59;97831.91;5015792;28;20606;-63
2021/12/25 06:10:56;;;;;;;40.77;23.13;;;;;;;8.24;73.50;97857.50;5024555;28;20251;-62
2021/12/25 06:13:23;;;;;;;39.53;21.80;;;;;;;8.21;73.08;97854.41;5019233;28;20239;-63
2021/12/25 06:15:53;;;;;;;39.63;21.33;;;;;;;8.67;72.24;97834.16;5026066;28;20234;-63
2021/12/25 06:18:20;;;;;;;40.33;22.93;;;;;;;7.25;76.28;97880.03;5027062;28;20225;-63
2021/12/25 06:20:47;;;;;;;36.33;20.30;;;;;;;8.27;73.69;97856.25;5010522;28;20269;-63
2021/12/25 06:23:14;;;;;;;39.00;20.93;;;;;;;8.48;73.57;97847.28;5020331;28;20220;-63
2021/12/25 06:25:41;;;;;;;38.30;20.97;;;;;;;9.15;70.31;97813.41;5025651;28;20235;-63
2021/12/25 06:28:08;;;;;;;38.30;21.40;;;;;;;8.67;72.03;97855.41;5026158;28;21107;-63
2021/12/25 06:30:37;;;;;;;35.73;21.57;;;;;;;8.96;70.24;97823.09;5026201;28;20971;-63
2021/12/25 06:33:07;;;;;;;38.73;21.93;;;;;;;9.08;70.75;97823.25;5020971;28;20235;-63
2021/12/25 06:35:34;;;;;;;37.13;20.03;;;;;;;9.32;69.74;97818.25;5013439;28;20270;-63
2021/12/25 06:38:01;;;;;;;34.63;20.90;;;;;;;7.80;75.08;97880.06;5025914;28;20244;-63
2021/12/25 06:40:28;;;;;;;35.83;21.27;;;;;;;8.74;72.40;97843.75;5023432;28;20237;-63
2021/12/25 06:42:55;;;;;;;35.17;21.03;;;;;;;9.24;70.62;97821.16;5021834;28;20308;-62
2021/12/25 06:45:22;;;;;;;36.30;20.00;;;;;;;9.31;70.81;97829.94;5025936;28;20227;-63
2021/12/25 06:47:49;;;;;;;36.63;21.60;;;;;;;8.90;71.31;97831.91;5010964;28;20269;-63
2021/12/25 06:50:16;;;;;;;37.40;22.13;;;;;;;8.55;73.14;97857.88;5022700;28;20743;-63
2021/12/25 06:52:45;;;;;;;38.27;20.57;;;;;;;8.94;71.20;97835.78;5025060;28;20235;-63
2021/12/25 06:55:13;;;;;;;41.80;20.57;;;;;;;8.83;71.92;97843.56;5020878;28;20711;-63
2021/12/25 06:58:14;;;;;;;31.00;19.70;;;;;;;8.94;71.76;97849.06;5023739;28;20606;-63
2021/12/25 07:00:34;;;;;;;34.23;20.17;;;;;;;9.24;70.35;97829.13;5013254;28;20269;-63
2021/12/25 07:03:01;;;;;;;39.47;21.60;;;;;;;9.14;71.38;97842.91;5018602;28;20235;-62
2021/12/25 07:05:28;;;;;;;34.10;19.83;;;;;;;9.08;70.43;97841.06;5024107;28;20787;-63
2021/12/25 07:07:56;;;;;;;32.87;21.37;;;;;;;9.48;69.86;97831.09;5025668;28;20237;-63
2021/12/25 07:10:24;;;;;;;34.50;20.20;;;;;;;9.37;69.98;97839.72;5025105;28;20231;-63
2021/12/25 07:12:53;;;;;;;33.53;18.57;;;;;;;8.92;71.27;97858.28;5022676;28;20254;-63
2021/12/25 07:15:20;;;;;;;38.60;19.50;;;;;;;8.93;71.70;97859.91;5008902;28;20253;-63
2021/12/25 07:17:47;;;;;;;33.50;19.27;;;;;;;9.43;70.57;97852.19;4996367;28;20235;-63
2021/12/25 07:20:14;;;;;;;33.90;19.93;;;;;;;9.34;71.26;97851.63;5028679;28;20700;-63
2021/12/25 07:22:41;;;;;;;35.07;19.77;;;;;;;8.38;74.46;97892.00;5045703;28;20223;-63
2021/12/25 07:25:09;;;;;;;32.57;18.37;;;;;;;8.49;73.99;97888.75;5028128;28;20234;-63
2021/12/25 07:27:36;;;;;;;29.37;18.23;;;;;;;6.76;80.39;97929.47;5019553;28;20240;-63
2021/12/25 07:30:05;;;;;;;31.80;17.53;;;;;;;7.21;78.85;97920.38;5025080;28;20228;-63
2021/12/25 07:32:33;;;;;;;28.50;17.53;;;;;;;7.62;76.97;97895.72;5029579;28;20586;-63
2021/12/25 07:35:00;;;;;;;34.23;18.10;;;;;;;7.03;79.98;97934.13;5028235;28;20232;-63
2021/12/25 07:37:27;;;;;;;27.93;17.23;;;;;;;6.37;83.00;97949.31;5029204;28;20408;-62
2021/12/25 07:39:54;;;;;;;26.17;16.67;;;;;;;6.14;83.48;97945.97;5019483;28;20492;-63
2021/12/25 07:42:21;;;;;;;25.67;16.67;;;;;;;7.02;82.30;97906.81;5021727;28;20609;-63
2021/12/25 07:44:53;;;;;;;31.30;17.80;;;;;;;5.98;83.18;97950.47;5029194;28;20239;-63
2021/12/25 07:49:51;;;;;;;27.13;18.40;;;;;;;6.17;83.47;97946.41;4971944;28;20614;-61
2021/12/25 07:52:18;;;;;;;25.50;17.07;;;;;;;7.46;79.89;97880.94;4985897;28;20789;-60
2021/12/25 07:54:45;;;;;;;33.37;19.30;;;;;;;8.20;75.22;97874.84;4980543;28;20260;-60
2021/12/25 07:57:12;;;;;;;30.50;19.23;;;;;;;8.51;74.65;97875.25;4985848;28;20597;-60
2021/12/25 07:59:39;;;;;;;37.50;19.80;;;;;;;7.07;78.38;97951.31;4989697;28;20236;-60
2021/12/25 08:02:06;;;;;;;29.70;19.80;;;;;;;7.04;78.43;97949.03;4986632;28;21135;-59
2021/12/25 08:04:34;;;;;;;34.47;19.10;;;;;;;8.33;75.55;97891.78;4989454;28;20232;-60
2021/12/25 08:07:01;;;;;;;29.43;18.57;;;;;;;8.27;75.09;97892.63;4993188;28;20253;-61
2021/12/25 08:09:29;;;;;;;33.40;20.33;;;;;;;8.62;72.32;97877.31;4982182;28;20603;-60
2021/12/25 08:11:58;;;;;;;37.67;21.53;;;;;;;7.69;77.51;97931.06;4989913;28;20500;-59
2021/12/25 08:14:25;;;;;;;31.17;20.40;;;;;;;7.77;77.54;97935.38;4988283;28;20222;-60
2021/12/25 08:16:54;;;;;;;31.97;20.83;;;;;;;9.08;71.27;97875.66;4989662;28;20232;-60
2021/12/25 08:19:22;;;;;;;34.63;21.90;;;;;;;7.51;75.26;97942.97;4985007;28;20238;-60
2021/12/25 08:21:50;;;;;;;34.97;21.40;;;;;;;9.06;73.06;97885.69;4980225;28;20582;-60
2021/12/25 08:24:18;;;;;;;32.00;20.70;;;;;;;9.83;69.01;97869.81;4988684;28;20247;-62
2021/12/25 08:26:47;;;;;;;34.17;21.10;;;;;;;7.57;75.19;97959.97;4989061;28;20233;-59
2021/12/25 08:29:15;;;;;;;32.17;19.30;;;;;;;8.70;73.38;97916.97;4988618;28;20953;-61
2021/12/25 08:31:42;;;;;;;33.53;21.60;;;;;;;8.65;73.56;97916.78;4989749;28;20236;-61
2021/12/25 08:34:10;;;;;;;34.27;21.37;;;;;;;9.08;72.52;97895.06;4978503;28;20619;-60
2021/12/25 08:36:38;;;;;;;45.90;27.77;;;;;;;8.24;73.55;97939.84;4985342;28;20610;-60
2021/12/25 08:39:06;;;;;;;32.83;21.13;;;;;;;8.56;74.32;97940.06;4989148;28;20455;-61
2021/12/25 08:41:34;;;;;;;35.67;22.40;;;;;;;7.96;73.75;97953.22;4988933;28;20228;-60
2021/12/25 08:44:08;;;;;;;35.50;24.10;;;;;;;8.99;72.88;97928.25;4989175;28;20256;-60
2021/12/25 08:46:45;;;;;;;49.20;32.97;;;;;;;10.06;68.63;97888.78;4982110;28;20229;-60
2021/12/25 08:49:17;;;;;;;52.90;37.10;;;;;;;8.93;70.94;97939.69;4981406;28;20242;-60
2021/12/25 08:51:44;;;;;;;50.50;35.13;;;;;;;10.42;67.57;97899.81;4988334;28;20229;-60
2021/12/25 08:54:12;;;;;;;60.40;40.03;;;;;;;10.14;68.16;97908.22;4988729;28;20227;-60
2021/12/25 08:56:40;;;;;;;36.67;24.17;;;;;;;8.98;71.22;97946.03;4987993;28;20248;-60
2021/12/25 08:59:07;;;;;;;43.60;29.60;;;;;;;8.30;75.04;97966.59;4984738;28;20241;-60
2021/12/25 09:01:35;;;;;;;33.90;24.30;;;;;;;9.25;71.07;97919.38;4990670;28;20303;-59
2021/12/25 09:04:03;;;;;;;35.23;22.20;;;;;;;9.05;72.09;97945.19;4989221;28;20234;-60
2021/12/25 09:06:30;;;;;;;35.97;23.23;;;;;;;9.45;70.35;97932.63;4989472;28;20233;-63
2021/12/25 09:09:02;;;;;;;33.00;21.07;;;;;;;9.32;71.06;97938.81;4986750;28;20233;-61
2021/12/25 09:11:29;;;;;;;33.33;20.17;;;;;;;8.84;71.98;97952.38;4989691;28;20230;-62
2021/12/25 09:13:56;;;;;;;31.80;21.37;;;;;;;9.36;70.19;97928.59;4977271;28;20248;-63
2021/12/25 09:16:23;;;;;;;37.60;25.00;;;;;;;9.06;70.28;97944.19;4986086;28;20226;-60
2021/12/25 09:18:50;;;;;;;27.10;17.37;;;;;;;9.61;70.48;97925.22;4987584;28;20234;-61
2021/12/25 09:21:17;;;;;;;32.53;22.00;;;;;;;9.10;71.67;97959.50;4987875;28;20727;-60
2021/12/25 09:23:44;;;;;;;42.47;27.00;;;;;;;9.65;70.40;97927.25;4987592;28;20238;-60
2021/12/25 09:26:11;;;;;;;38.33;24.20;;;;;;;7.51;77.92;98009.31;4982499;28;20234;-61
2021/12/25 09:28:38;;;;;;;30.00;20.00;;;;;;;8.13;78.54;97984.75;4980019;28;20240;-60
2021/12/25 09:31:06;;;;;;;29.10;19.20;;;;;;;6.82;81.79;98022.47;4988530;28;20659;-60
2021/12/25 09:33:33;;;;;;;25.60;17.27;;;;;;;7.43;80.85;98003.34;4987411;28;20224;-60
2021/12/25 09:36:02;;;;;;;28.37;17.17;;;;;;;8.31;74.00;97979.66;4988813;28;20233;-60
2021/12/25 09:38:30;;;;;;;26.67;16.20;;;;;;;7.64;78.89;97999.84;4988038;28;20244;-61
2021/12/25 09:40:58;;;;;;;27.37;18.23;;;;;;;7.26;79.83;98014.25;4977589;28;20226;-61
2021/12/25 09:43:25;;;;;;;29.33;20.23;;;;;;;9.30;73.03;97924.09;4990822;28;20230;-60
2021/12/25 09:45:53;;;;;;;27.53;18.33;;;;;;;9.42;70.73;97938.38;4991591;28;20240;-64
2021/12/25 09:48:21;;;;;;;35.50;22.33;;;;;;;8.49;75.65;98000.34;4988597;28;20734;-60
2021/12/25 09:50:49;;;;;;;37.87;25.40;;;;;;;7.66;77.32;98017.19;4986143;28;20329;-60
2021/12/25 09:53:18;;;;;;;31.83;22.47;;;;;;;8.14;77.11;97992.47;4978215;28;20240;-61
2021/12/25 09:55:46;;;;;;;32.57;22.33;;;;;;;7.27;80.52;98026.50;4978823;28;20557;-63
2021/12/25 09:58:13;;;;;;;32.33;23.33;;;;;;;7.93;80.11;97990.78;4987417;28;20226;-61
2021/12/25 10:00:44;;;;;;;27.57;19.60;;;;;;;7.30;80.12;98023.47;4985914;28;20239;-60
2021/12/25 10:03:22;;;;;;;27.53;19.53;;;;;;;8.58;77.92;97961.94;4987272;28;21989;-61
2021/12/25 10:05:52;;;;;;;26.73;17.93;;;;;;;7.42;81.01;98010.50;4982892;28;20253;-61
2021/12/25 10:08:26;;;;;;;27.53;17.97;;;;;;;7.24;81.63;98021.59;4979685;28;20264;-61
2021/12/25 10:10:56;;;;;;;23.63;16.57;;;;;;;7.36;79.23;98010.44;4987663;28;20222;-61
2021/12/25 10:13:40;;;;;;;23.97;15.87;;;;;;;7.04;81.06;98010.00;4986900;28;20252;-62
2021/12/25 10:16:24;;;;;;;24.03;16.03;;;;;;;6.60;83.23;98017.16;4988313;28;20244;-61
2021/12/25 10:19:11;;;;;;;27.03;16.43;;;;;;;7.33;80.22;98001.88;4982857;28;20248;-60
2021/12/25 10:21:39;;;;;;;24.53;15.07;;;;;;;8.32;79.56;97945.97;4979753;28;20832;-60
2021/12/25 10:24:15;;;;;;;26.03;15.77;;;;;;;6.71;83.39;98011.38;4986481;28;20828;-60
2021/12/25 10:26:45;;;;;;;23.60;15.63;;;;;;;8.10;80.19;97947.97;4987434;28;20236;-60
2021/12/25 10:29:24;;;;;;;23.77;16.77;;;;;;;7.09;82.17;97997.00;4986089;28;20241;-59
2021/12/25 10:31:55;;;;;;;21.20;14.03;;;;;;;7.26;80.43;98005.47;4983602;28;20260;-60
2021/12/25 10:34:25;;;;;;;24.73;16.07;;;;;;;8.29;76.42;97943.72;4977229;28;20222;-62
2021/12/25 10:36:53;;;;;;;23.23;14.77;;;;;;;8.85;75.10;97915.97;4984865;28;20567;-61
2021/12/25 10:39:27;;;;;;;25.97;16.40;;;;;;;8.05;76.04;97965.28;4984455;28;20240;-62
2021/12/25 10:42:03;;;;;;;24.30;15.60;;;;;;;9.16;74.93;97918.00;4987597;28;20762;-62
2021/12/25 10:44:42;;;;;;;27.73;16.07;;;;;;;8.37;78.85;97951.50;4980411;28;20605;-61
2021/12/25 10:47:20;;;;;;;23.83;17.20;;;;;;;10.07;71.07;97892.28;4978001;28;20226;-62
2021/12/25 10:49:56;;;;;;;25.43;16.70;;;;;;;10.01;70.76;97903.78;4983700;28;20948;-62
2021/12/25 10:52:32;;;;;;;27.50;18.13;;;;;;;10.44;69.58;97898.56;4987449;28;20799;-62
2021/12/25 10:55:04;;;;;;;25.53;16.87;;;;;;;10.33;69.46;97917.09;4984921;28;21002;-62
2021/12/25 10:57:37;;;;;;;25.60;16.73;;;;;;;10.26;69.68;97922.47;4987348;28;20231;-62
2021/12/25 11:00:10;;;;;;;27.07;17.80;;;;;;;10.45;69.45;97912.72;4977217;28;20241;-62
2021/12/25 11:03:46;;;;;;;26.23;16.63;;;;;;;8.18;77.05;97961.88;5050924;28;20580;-62
2021/12/25 11:06:17;;;;;;;27.03;19.13;;;;;;;8.75;75.10;97935.81;5003119;28;20712;-62
2021/12/25 11:08:46;;;;;;;29.07;18.87;;;;;;;8.33;76.50;97959.06;5012746;28;20232;-63
2021/12/25 11:11:17;;;;;;;27.57;17.73;;;;;;;9.02;74.42;97937.63;5016599;28;20865;-63
2021/12/25 11:13:53;;;;;;;28.43;19.13;;;;;;;9.07;73.85;97935.16;5012135;28;20241;-60
2021/12/25 11:16:31;;;;;;;27.57;17.17;;;;;;;9.21;74.30;97931.47;4998945;28;20240;-63
2021/12/25 11:19:17;;;;;;;26.97;15.90;;;;;;;8.96;74.77;97942.75;5001695;28;20245;-61
2021/12/25 11:21:44;;;;;;;24.90;14.47;;;;;;;8.41;76.21;97964.19;5003993;28;20985;-61
2021/12/25 11:24:15;;;;;;;23.07;15.47;;;;;;;8.14;78.15;97970.44;4992167;28;20221;-61
2021/12/25 11:26:46;;;;;;;28.00;16.10;;;;;;;8.79;75.65;97936.22;4994159;28;20244;-65
2021/12/25 11:29:15;;;;;;;24.47;14.60;;;;;;;8.20;79.12;97961.69;5001180;28;20268;-61
2021/12/25 11:31:43;;;;;;;23.63;15.07;;;;;;;8.52;76.93;97944.16;4991715;28;20248;-61
2021/12/25 11:34:11;;;;;;;20.83;13.63;;;;;;;9.18;73.84;97913.28;4990150;28;20236;-61
2021/12/25 11:36:40;;;;;;;23.37;14.23;;;;;;;8.95;74.83;97927.00;4991136;28;20682;-61
2021/12/25 11:39:07;;;;;;;23.90;15.30;;;;;;;9.23;73.51;97913.47;4989182;28;20229;-60
2021/12/25 11:41:36;;;;;;;21.57;13.00;;;;;;;8.02;78.33;97971.00;4992925;28;20244;-61
2021/12/25 11:44:07;;;;;;;23.73;15.37;;;;;;;9.61;72.56;97894.13;4994330;28;20232;-63
2021/12/25 11:46:44;;;;;;;32.90;20.67;;;;;;;9.51;72.65;97899.03;5011784;28;20248;-61
2021/12/25 11:49:14;;;;;;;20.40;13.33;;;;;;;9.53;72.73;97899.66;4997840;28;20742;-61
2021/12/25 11:51:44;;;;;;;17.80;12.67;;;;;;;9.83;71.15;97891.97;5000046;28;20240;-62
2021/12/25 11:59:49;;;;;;;20.10;14.37;;;;;;;10.00;70.60;97904.78;4999457;28;20239;-62
2021/12/25 12:02:42;;;;;;;22.73;14.17;;;;;;;9.62;72.37;97925.00;4997350;28;20214;-61
2021/12/25 12:05:24;;;;;;;21.03;13.90;;;;;;;10.27;70.15;97892.97;4995763;28;20325;-61
2021/12/25 12:08:03;;;;;;;17.93;12.57;;;;;;;10.05;70.96;97907.63;4993697;28;20237;-62
2021/12/25 12:10:45;;;;;;;22.33;14.33;;;;;;;10.42;69.64;97895.31;4988068;28;20226;-62
2021/12/25 12:13:21;;;;;;;19.00;12.47;;;;;;;9.86;70.87;97912.03;4995954;28;20239;-61
2021/12/25 12:15:51;;;;;;;21.03;13.33;;;;;;;10.26;70.19;97904.63;4985534;28;20592;-62
2021/12/25 12:18:24;;;;;;;17.10;11.93;;;;;;;10.36;69.50;97904.16;4992988;28;20238;-62
2021/12/25 12:21:13;;;;;;;19.07;12.53;;;;;;;10.48;69.40;97904.28;4985396;28;20240;-62
2021/12/25 12:24:08;;;;;;;16.90;12.23;;;;;;;9.97;71.31;97924.69;4995858;28;20233;-61
2021/12/25 12:26:50;;;;;;;17.27;12.60;;;;;;;9.82;73.20;97935.59;4985304;28;20218;-63
2021/12/25 12:29:41;;;;;;;15.83;12.07;;;;;;;9.93;71.40;97923.47;4987344;28;20671;-61
2021/12/25 12:32:36;;;;;;;15.97;11.40;;;;;;;10.51;69.39;97905.72;4982536;28;20234;-60
2021/12/25 12:35:26;;;;;;;17.47;11.00;;;;;;;10.23;70.00;97918.38;4985014;28;20232;-61
2021/12/25 12:37:53;;;;;;;16.63;11.30;;;;;;;10.76;68.97;97911.06;4987376;28;20252;-60
2021/12/25 12:40:25;;;;;;;17.17;12.17;;;;;;;10.42;70.52;97921.13;4979780;28;20224;-61
2021/12/25 12:42:57;;;;;;;15.47;11.60;;;;;;;10.31;69.94;97919.19;4990409;28;20710;-61
2021/12/25 12:45:32;;;;;;;17.03;11.70;;;;;;;11.08;67.21;97895.81;4984409;28;20641;-63
2021/12/25 12:48:10;;;;;;;18.37;12.97;;;;;;;10.34;69.55;97924.09;4985229;28;20241;-61
2021/12/25 12:50:40;;;;;;;19.17;12.47;;;;;;;10.90;68.26;97915.25;4985166;28;20236;-62
2021/12/25 12:53:09;;;;;;;17.37;13.07;;;;;;;10.39;69.97;97929.59;4987987;28;20222;-61
2021/12/25 12:55:42;;;;;;;19.53;14.17;;;;;;;10.79;67.89;97919.44;4987035;28;20252;-61
2021/12/25 12:58:23;;;;;;;17.57;11.77;;;;;;;10.77;68.81;97929.47;4984561;28;20244;-61
2021/12/25 13:01:02;;;;;;;17.40;12.27;;;;;;;10.88;67.88;97921.88;4973660;28;20234;-61